createdAt,value
2018-02-18T00:01:47.184Z,133.55
2018-02-18T00:04:15.071Z,133.25
2018-02-18T00:06:43.934Z,132.90
2018-02-18T00:09:12.108Z,120.13
2018-02-18T00:11:40.288Z,136.35
2018-02-18T00:14:10.203Z,121.90
2018-02-18T00:16:39.798Z,138.30
2018-02-18T00:19:07.874Z,125.82
2018-02-18T00:21:37.693Z,133.18
2018-02-18T00:24:05.859Z,138.73
2018-02-18T00:26:34.031Z,130.02
2018-02-18T00:29:02.104Z,123.43
2018-02-18T00:31:30.170Z,125.55
2018-02-18T00:33:59.270Z,119.93
2018-02-18T00:36:27.335Z,129.73
2018-02-18T00:38:55.624Z,125.43
2018-02-18T00:41:24.404Z,135.60
2018-02-18T00:43:52.372Z,122.85
2018-02-18T00:46:20.555Z,125.75
2018-02-18T00:48:48.721Z,123.00
2018-02-18T00:51:16.895Z,129.48
2018-02-18T00:53:46.499Z,116.07
2018-02-18T00:56:14.676Z,137.18
2018-02-18T00:58:44.174Z,124.30
2018-02-18T01:01:12.258Z,138.80
2018-02-18T01:03:40.214Z,148.80
2018-02-18T01:06:08.391Z,128.23
2018-02-18T01:08:37.180Z,133.23
2018-02-18T01:11:05.867Z,136.52
2018-02-18T01:13:34.056Z,138.70
2018-02-18T01:16:04.876Z,148.52
2018-02-18T01:18:32.843Z,147.02
2018-02-18T01:21:01.025Z,144.73
2018-02-18T01:23:29.084Z,144.55
2018-02-18T01:25:57.271Z,141.90
2018-02-18T01:28:25.341Z,149.45
2018-02-18T01:30:53.508Z,149.57
2018-02-18T01:33:21.689Z,133.43
2018-02-18T01:35:49.964Z,137.20
2018-02-18T01:38:18.141Z,156.23
2018-02-18T01:40:46.307Z,156.45
2018-02-18T01:43:14.369Z,145.12
2018-02-18T01:45:42.445Z,132.68
2018-02-18T01:48:10.627Z,132.57
2018-02-18T01:50:38.686Z,141.80
2018-02-18T01:53:06.769Z,151.45
2018-02-18T01:55:34.932Z,137.70
2018-02-18T01:58:03.834Z,128.57
2018-02-18T02:00:31.891Z,141.43
2018-02-18T02:03:00.064Z,130.65
2018-02-18T02:05:28.148Z,147.55
2018-02-18T02:07:56.207Z,151.80
2018-02-18T02:10:24.394Z,137.73
2018-02-18T02:12:52.558Z,147.75
2018-02-18T02:15:20.733Z,133.32
2018-02-18T02:17:48.908Z,133.18
2018-02-18T02:20:17.080Z,136.35
2018-02-18T02:22:45.261Z,127.65
2018-02-18T02:25:13.434Z,150.82
2018-02-18T02:27:41.608Z,149.25
2018-02-18T02:30:09.774Z,139.52
2018-02-18T02:32:37.951Z,136.43
2018-02-18T02:35:06.235Z,143.65
2018-02-18T02:37:34.610Z,131.82
2018-02-18T02:40:02.671Z,132.63
2018-02-18T02:42:30.739Z,136.30
2018-02-18T02:44:58.926Z,137.77
2018-02-18T02:47:27.100Z,154.55
2018-02-18T02:49:55.265Z,159.05
2018-02-18T02:52:23.550Z,151.87
2018-02-18T02:54:52.437Z,142.45
2018-02-18T02:57:20.626Z,155.50
2018-02-18T02:59:49.503Z,146.93
2018-02-18T03:02:17.668Z,146.73
2018-02-18T03:04:45.853Z,153.38
2018-02-18T03:07:14.125Z,160.27
2018-02-18T03:09:42.289Z,148.10
2018-02-18T03:12:10.471Z,159.55
2018-02-18T03:14:38.639Z,154.00
2018-02-18T03:17:06.709Z,160.98
2018-02-18T03:19:34.780Z,145.25
2018-02-18T03:22:02.954Z,161.10
2018-02-18T03:24:31.025Z,157.88
2018-02-18T03:26:59.092Z,151.85
2018-02-18T03:29:27.176Z,148.02
2018-02-18T03:31:55.235Z,164.10
2018-02-18T03:34:23.419Z,156.23
2018-02-18T03:36:51.593Z,151.12
2018-02-18T03:39:19.766Z,165.55
2018-02-18T03:41:47.825Z,180.75
2018-02-18T03:44:15.999Z,168.98
2018-02-18T03:46:44.071Z,159.30
2018-02-18T03:49:12.243Z,159.07
2018-02-18T03:51:40.315Z,176.07
2018-02-18T03:54:08.501Z,156.15
2018-02-18T03:56:36.665Z,150.00
2018-02-18T03:59:04.745Z,154.90
2018-02-18T04:01:32.989Z,164.43
2018-02-18T04:04:01.200Z,167.43
2018-02-18T04:06:29.325Z,159.85
2018-02-18T04:08:57.542Z,160.90
2018-02-18T04:11:25.601Z,173.62
2018-02-18T04:13:53.672Z,161.60
2018-02-18T04:16:21.848Z,155.65
2018-02-18T04:18:49.814Z,182.18
2018-02-18T04:21:17.994Z,166.30
2018-02-18T04:23:46.069Z,158.55
2018-02-18T04:26:14.847Z,175.12
2018-02-18T04:28:43.032Z,156.40
2018-02-18T04:31:11.307Z,166.23
2018-02-18T04:33:39.473Z,163.73
2018-02-18T04:36:07.649Z,148.90
2018-02-18T04:38:35.931Z,146.32
2018-02-18T04:41:04.207Z,155.45
2018-02-18T04:43:32.380Z,151.80
2018-02-18T04:46:00.337Z,152.62
2018-02-18T04:48:28.377Z,166.25
2018-02-18T04:50:56.483Z,151.02
2018-02-18T04:53:24.656Z,147.68
2018-02-18T04:55:52.945Z,162.23
2018-02-18T04:58:21.124Z,152.00
2018-02-18T05:00:49.903Z,153.32
2018-02-18T05:03:18.788Z,150.85
2018-02-18T05:05:46.852Z,147.93
2018-02-18T05:08:14.923Z,156.05
2018-02-18T05:10:43.101Z,152.43
2018-02-18T05:13:11.386Z,136.57
2018-02-18T05:15:39.545Z,128.38
2018-02-18T05:18:07.719Z,139.95
2018-02-18T05:20:35.892Z,142.45
2018-02-18T05:23:04.066Z,144.23
2018-02-18T05:25:32.149Z,132.70
2018-02-18T05:28:00.323Z,143.20
2018-02-18T05:30:28.490Z,131.63
2018-02-18T05:32:56.774Z,138.73
2018-02-18T05:35:24.835Z,139.98
2018-02-18T05:37:53.361Z,139.00
2018-02-18T05:40:21.594Z,127.38
2018-02-18T05:42:49.660Z,143.57
2018-02-18T05:45:17.730Z,146.43
2018-02-18T05:47:45.701Z,129.95
2018-02-18T05:50:14.692Z,127.90
2018-02-18T05:52:43.687Z,118.78
2018-02-18T05:55:11.870Z,122.78
2018-02-18T05:57:40.043Z,126.10
2018-02-18T06:00:08.103Z,112.72
2018-02-18T06:02:36.280Z,133.77
2018-02-18T06:05:04.456Z,110.18
2018-02-18T06:07:32.626Z,118.53
2018-02-18T06:10:00.910Z,125.90
2018-02-18T06:12:28.970Z,123.18
2018-02-18T06:14:57.150Z,120.90
2018-02-18T06:17:25.219Z,118.15
2018-02-18T06:19:53.395Z,123.53
2018-02-18T06:22:21.566Z,100.72
2018-02-18T06:24:49.748Z,118.32
2018-02-18T06:27:17.911Z,108.03
2018-02-18T06:29:46.083Z,120.75
2018-02-18T06:32:14.263Z,122.10
2018-02-18T06:34:42.225Z,121.35
2018-02-18T06:37:11.025Z,110.25
2018-02-18T06:39:39.191Z,119.40
2018-02-18T06:42:07.155Z,135.45
2018-02-18T06:44:35.125Z,130.70
2018-02-18T06:47:03.207Z,111.80
2018-02-18T06:49:32.807Z,126.32
2018-02-18T06:52:00.877Z,123.40
2018-02-18T06:54:30.378Z,113.22
2018-02-18T06:56:58.450Z,113.00
2018-02-18T06:59:26.636Z,111.37
2018-02-18T07:01:54.801Z,104.78
2018-02-18T07:04:22.982Z,111.25
2018-02-18T07:06:51.146Z,108.82
2018-02-18T07:09:19.337Z,115.32
2018-02-18T07:11:47.388Z,96.63
2018-02-18T07:14:15.567Z,96.72
2018-02-18T07:16:43.738Z,110.40
2018-02-18T07:19:11.909Z,109.25
2018-02-18T07:21:40.811Z,97.00
2018-02-18T07:24:09.087Z,101.25
2018-02-18T07:26:37.250Z,85.38
2018-02-18T07:29:05.434Z,88.55
2018-02-18T07:31:33.609Z,78.87
2018-02-18T07:34:01.773Z,85.72
2018-02-18T07:36:29.955Z,95.85
2018-02-18T07:38:58.115Z,107.95
2018-02-18T07:41:26.296Z,114.18
2018-02-18T07:43:54.361Z,108.53
2018-02-18T07:46:22.545Z,111.72
2018-02-18T07:48:50.822Z,113.37
2018-02-18T07:51:18.983Z,96.03
2018-02-18T07:53:47.169Z,107.25
2018-02-18T07:56:15.228Z,119.93
2018-02-18T07:58:43.413Z,119.00
2018-02-18T08:01:11.472Z,130.30
2018-02-18T08:03:39.441Z,128.73
2018-02-18T08:06:07.513Z,118.47
2018-02-18T08:08:35.586Z,102.55
2018-02-18T08:11:05.196Z,123.53
2018-02-18T08:13:33.262Z,111.93
2018-02-18T08:16:01.232Z,112.53
2018-02-18T08:18:29.407Z,113.53
2018-02-18T08:20:58.097Z,110.50
2018-02-18T08:23:26.164Z,101.20
2018-02-18T08:25:54.328Z,92.10
2018-02-18T08:28:22.405Z,121.55
2018-02-18T08:30:50.591Z,107.32
2018-02-18T08:33:18.650Z,106.10
2018-02-18T08:35:46.964Z,95.85
2018-02-18T08:38:15.111Z,92.00
2018-02-18T08:40:43.277Z,106.85
2018-02-18T08:43:11.552Z,104.93
2018-02-18T08:45:39.620Z,102.55
2018-02-18T08:48:07.691Z,107.70
2018-02-18T08:50:35.660Z,110.28
2018-02-18T08:53:05.323Z,96.95
2018-02-18T08:55:33.549Z,92.53
2018-02-18T08:58:01.511Z,119.00
2018-02-18T09:00:29.588Z,109.22
2018-02-18T09:02:57.658Z,95.72
2018-02-18T09:05:25.839Z,136.75
2018-02-18T09:07:54.013Z,108.30
2018-02-18T09:10:22.071Z,101.80
2018-02-18T09:12:50.156Z,108.70
2018-02-18T09:15:18.317Z,84.28
2018-02-18T09:17:46.545Z,102.07
2018-02-18T09:20:14.669Z,89.35
2018-02-18T09:22:42.846Z,101.22
2018-02-18T09:25:11.425Z,91.90
2018-02-18T09:27:40.323Z,85.00
2018-02-18T09:30:08.395Z,91.30
2018-02-18T09:32:36.555Z,95.30
2018-02-18T09:35:04.627Z,95.78
2018-02-18T09:37:32.698Z,84.68
2018-02-18T09:40:00.769Z,84.18
2018-02-18T09:42:28.948Z,95.97
2018-02-18T09:44:57.017Z,84.78
2018-02-18T09:47:24.987Z,92.35
2018-02-18T09:49:53.056Z,91.87
2018-02-18T09:52:21.231Z,86.18
2018-02-18T09:54:49.401Z,100.87
2018-02-18T09:57:17.484Z,98.70
2018-02-18T09:59:46.475Z,104.78
2018-02-18T10:02:14.644Z,94.57
2018-02-18T10:04:43.541Z,84.13
2018-02-18T10:07:11.612Z,90.57
2018-02-18T10:09:39.778Z,104.93
2018-02-18T10:12:07.742Z,94.93
2018-02-18T10:14:35.816Z,103.87
2018-02-18T10:17:04.600Z,112.47
2018-02-18T10:19:32.774Z,103.45
2018-02-18T10:22:00.958Z,93.10
2018-02-18T10:24:28.919Z,98.40
2018-02-18T10:26:56.987Z,133.90
2018-02-18T10:29:25.029Z,113.40
2018-02-18T10:31:53.149Z,110.05
2018-02-18T10:34:21.920Z,100.12
2018-02-18T10:36:50.000Z,107.72
2018-02-18T10:39:18.194Z,126.05
2018-02-18T10:41:47.055Z,110.47
2018-02-18T10:44:15.237Z,103.25
2018-02-18T10:46:43.400Z,93.50
2018-02-18T10:49:11.572Z,136.07
2018-02-18T10:51:39.648Z,90.00
2018-02-18T10:54:08.329Z,106.63
2018-02-18T10:56:36.354Z,92.45
2018-02-18T10:59:04.586Z,100.62
2018-02-18T11:01:32.747Z,98.32
2018-02-18T11:04:00.933Z,107.90
2018-02-18T11:06:29.107Z,98.80
2018-02-18T11:08:57.269Z,121.70
2018-02-18T11:11:25.242Z,101.28
2018-02-18T11:13:53.309Z,152.20
2018-02-18T11:16:21.391Z,98.07
2018-02-18T11:18:49.348Z,90.90
2018-02-18T11:21:17.526Z,98.97
2018-02-18T11:23:45.484Z,94.55
2018-02-18T11:26:13.564Z,108.63
2018-02-18T11:28:41.747Z,115.18
2018-02-18T11:31:09.908Z,111.35
2018-02-18T11:33:39.002Z,102.50
2018-02-18T11:36:07.084Z,114.35
2018-02-18T11:38:35.260Z,107.35
2018-02-18T11:41:03.932Z,105.18
2018-02-18T11:43:32.122Z,92.80
2018-02-18T11:46:00.280Z,102.82
2018-02-18T11:48:28.465Z,126.50
2018-02-18T11:50:56.423Z,108.45
2018-02-18T11:53:24.500Z,102.60
2018-02-18T11:55:52.669Z,101.47
2018-02-18T11:58:21.459Z,113.95
2018-02-18T12:00:50.344Z,105.03
2018-02-18T12:03:18.419Z,97.72
2018-02-18T12:05:46.489Z,100.90
2018-02-18T12:08:14.673Z,90.80
2018-02-18T12:10:42.743Z,92.90
2018-02-18T12:13:10.803Z,85.20
2018-02-18T12:15:39.091Z,91.18
2018-02-18T12:18:07.060Z,96.18
2018-02-18T12:20:35.017Z,92.00
2018-02-18T12:23:03.203Z,88.15
2018-02-18T12:25:31.303Z,89.30
2018-02-18T12:27:59.549Z,87.45
2018-02-18T12:30:27.715Z,85.47
2018-02-18T12:32:55.781Z,92.55
2018-02-18T12:35:24.480Z,110.50
2018-02-18T12:37:53.052Z,92.88
2018-02-18T12:40:21.230Z,94.22
2018-02-18T12:42:49.409Z,90.38
2018-02-18T12:45:20.137Z,87.95
2018-02-18T12:47:48.206Z,87.68
2018-02-18T12:50:16.386Z,93.62
2018-02-18T12:52:44.552Z,89.65
2018-02-18T12:55:13.451Z,89.30
2018-02-18T12:57:41.659Z,100.60
2018-02-18T13:00:09.791Z,80.65
2018-02-18T13:02:37.972Z,116.43
2018-02-18T13:05:06.146Z,109.43
2018-02-18T13:07:34.307Z,91.57
2018-02-18T13:10:02.582Z,116.80
2018-02-18T13:12:31.677Z,94.35
2018-02-18T13:14:59.760Z,86.53
2018-02-18T13:17:29.676Z,88.53
2018-02-18T13:19:57.838Z,89.22
2018-02-18T13:22:26.017Z,74.28
2018-02-18T13:24:54.095Z,86.90
2018-02-18T13:27:22.154Z,72.05
2018-02-18T13:29:50.838Z,103.30
2018-02-18T13:32:18.807Z,79.60
2018-02-18T13:34:47.095Z,74.93
2018-02-18T13:37:17.781Z,79.50
2018-02-18T13:39:46.001Z,74.90
2018-02-18T13:42:14.064Z,78.15
2018-02-18T13:44:42.135Z,90.85
2018-02-18T13:47:11.129Z,70.03
2018-02-18T13:49:39.301Z,65.97
2018-02-18T13:52:07.368Z,80.35
2018-02-18T13:54:36.374Z,67.15
2018-02-18T13:57:04.580Z,66.47
2018-02-18T13:59:32.721Z,75.15
2018-02-18T14:02:01.502Z,79.57
2018-02-18T14:04:29.568Z,78.68
2018-02-18T14:06:57.741Z,79.68
2018-02-18T14:09:25.824Z,72.10
2018-02-18T14:11:55.423Z,73.15
2018-02-18T14:14:23.596Z,73.75
2018-02-18T14:16:51.711Z,61.40
2018-02-18T14:19:19.841Z,58.67
2018-02-18T14:21:47.912Z,68.22
2018-02-18T14:24:16.197Z,71.25
2018-02-18T14:26:44.374Z,74.55
2018-02-18T14:29:12.751Z,76.78
2018-02-18T14:31:41.524Z,74.10
2018-02-18T14:34:09.709Z,85.32
2018-02-18T14:36:37.872Z,62.60
2018-02-18T14:39:06.048Z,58.03
2018-02-18T14:41:45.770Z,62.20
2018-02-18T14:44:25.448Z,59.58
2018-02-18T14:47:05.434Z,57.55
2018-02-18T14:49:45.436Z,54.80
2018-02-18T14:52:25.591Z,41.53
2018-02-18T14:55:05.743Z,30.23
2018-02-18T14:57:34.941Z,38.83
2018-02-18T15:00:03.116Z,45.40
2018-02-18T15:02:31.401Z,43.97
2018-02-18T15:04:59.461Z,44.85
2018-02-18T15:07:27.736Z,40.47
2018-02-18T15:09:55.913Z,41.97
2018-02-18T15:12:24.697Z,38.28
2018-02-18T15:14:52.667Z,35.30
2018-02-18T15:17:20.840Z,33.55
2018-02-18T15:19:49.026Z,37.13
2018-02-18T15:22:17.097Z,27.23
2018-02-18T15:24:45.260Z,27.67
2018-02-18T15:27:13.328Z,27.70
2018-02-18T15:29:41.519Z,28.60
2018-02-18T15:32:09.687Z,27.90
2018-02-18T15:34:37.640Z,32.33
2018-02-18T15:37:05.822Z,32.55
2018-02-18T15:39:33.997Z,36.78
2018-02-18T15:42:02.883Z,44.65
2018-02-18T15:44:31.055Z,34.28
2018-02-18T15:46:59.285Z,36.97
2018-02-18T15:49:27.403Z,47.92
2018-02-18T15:51:55.486Z,35.25
2018-02-18T15:54:23.652Z,33.60
2018-02-18T15:56:52.345Z,35.03
2018-02-18T15:59:20.508Z,32.83
2018-02-18T16:01:49.347Z,37.15
2018-02-18T16:04:17.879Z,27.45
2018-02-18T16:06:45.948Z,26.77
2018-02-18T16:09:15.056Z,34.13
2018-02-18T16:11:43.229Z,35.45
2018-02-18T16:14:11.395Z,28.95
2018-02-18T16:16:39.577Z,35.13
2018-02-18T16:19:08.466Z,40.42
2018-02-18T16:21:36.631Z,31.70
2018-02-18T16:24:04.813Z,29.15
2018-02-18T16:26:32.987Z,35.58
2018-02-18T16:29:00.996Z,26.42
2018-02-18T16:31:29.150Z,20.48
2018-02-18T16:34:00.774Z,16.95
2018-02-18T16:36:28.946Z,10.52
2018-02-18T16:38:57.634Z,6.93
2018-02-18T16:41:25.807Z,4.57
2018-02-18T16:43:53.981Z,4.87
2018-02-18T16:46:23.587Z,4.95
2018-02-18T16:48:51.873Z,5.65
2018-02-18T16:51:20.049Z,4.05
2018-02-18T16:53:48.211Z,11.30
2018-02-18T16:56:16.484Z,5.60
2018-02-18T16:58:44.663Z,5.30
2018-02-18T17:01:12.730Z,6.53
2018-02-18T17:03:40.802Z,5.57
2018-02-18T17:06:08.986Z,7.07
2018-02-18T17:08:37.160Z,5.20
2018-02-18T17:11:05.224Z,6.20
2018-02-18T17:13:33.405Z,7.85
2018-02-18T17:16:01.571Z,4.70
2018-02-18T17:18:31.319Z,5.05
2018-02-18T17:21:00.065Z,6.22
2018-02-18T17:23:28.249Z,7.37
2018-02-18T17:25:56.422Z,6.00
2018-02-18T17:28:24.596Z,6.70
2018-02-18T17:30:52.768Z,8.25
2018-02-18T17:33:21.075Z,7.60
2018-02-18T17:35:49.321Z,6.40
2018-02-18T17:38:17.495Z,6.68
2018-02-18T17:40:45.660Z,10.77
2018-02-18T17:43:13.835Z,6.68
2018-02-18T17:45:41.798Z,7.80
2018-02-18T17:48:10.127Z,6.53
2018-02-18T17:50:38.145Z,6.43
2018-02-18T17:53:08.893Z,5.57
2018-02-18T17:55:36.955Z,6.55
2018-02-18T17:58:05.036Z,7.40
2018-02-18T18:00:33.194Z,6.50
2018-02-18T18:03:01.147Z,7.12
2018-02-18T18:05:29.349Z,7.30
2018-02-18T18:07:57.523Z,9.75
2018-02-18T18:10:27.219Z,7.05
2018-02-18T18:12:55.406Z,11.50
2018-02-18T18:15:23.465Z,8.88
2018-02-18T18:17:51.433Z,11.07
2018-02-18T18:20:19.519Z,10.65
2018-02-18T18:22:47.684Z,9.57
2018-02-18T18:25:15.752Z,13.60
2018-02-18T18:27:43.833Z,14.73
2018-02-18T18:30:11.886Z,14.52
2018-02-18T18:32:39.965Z,9.10
2018-02-18T18:35:08.352Z,9.18
2018-02-18T18:37:36.513Z,16.33
2018-02-18T18:40:04.483Z,9.25
2018-02-18T18:42:32.656Z,11.18
2018-02-18T18:45:00.833Z,11.05
2018-02-18T18:47:28.903Z,12.15
2018-02-18T18:49:56.973Z,11.40
2018-02-18T18:52:25.055Z,10.73
2018-02-18T18:54:53.224Z,12.00
2018-02-18T18:57:21.395Z,10.45
2018-02-18T18:59:49.465Z,9.27
2018-02-18T19:02:18.355Z,11.48
2018-02-18T19:04:46.424Z,7.35
2018-02-18T19:07:15.108Z,7.35
2018-02-18T19:09:43.197Z,9.85
2018-02-18T19:12:11.365Z,7.85
2018-02-18T19:14:39.539Z,7.90
2018-02-18T19:17:08.215Z,6.70
2018-02-18T19:19:36.398Z,6.55
2018-02-18T19:22:05.583Z,6.22
2018-02-18T19:24:34.587Z,8.02
2018-02-18T19:27:02.761Z,8.63
2018-02-18T19:29:31.447Z,7.25
2018-02-18T19:32:00.225Z,7.20
2018-02-18T19:34:29.846Z,8.13
2018-02-18T19:36:58.003Z,8.63
2018-02-18T19:39:26.080Z,8.45
2018-02-18T19:41:54.249Z,9.35
2018-02-18T19:44:23.154Z,7.50
2018-02-18T19:46:51.312Z,10.13
2018-02-18T19:49:19.384Z,8.80
2018-02-18T19:51:47.459Z,8.18
2018-02-18T19:54:15.639Z,8.43
2018-02-18T19:56:43.814Z,9.10
2018-02-18T19:59:11.988Z,8.20
2018-02-18T20:01:40.151Z,7.82
2018-02-18T20:04:08.335Z,9.27
2018-02-18T20:06:36.406Z,7.82
2018-02-18T20:09:04.682Z,11.73
2018-02-18T20:11:33.563Z,7.15
2018-02-18T20:14:02.452Z,8.63
2018-02-18T20:16:30.532Z,7.70
2018-02-18T20:18:58.705Z,9.15
2018-02-18T20:21:27.690Z,8.63
2018-02-18T20:23:56.077Z,7.22
2018-02-18T20:26:24.136Z,8.07
2018-02-18T20:28:52.311Z,7.10
2018-02-18T20:31:20.495Z,8.60
2018-02-18T20:33:50.102Z,8.77
2018-02-18T20:36:18.263Z,12.00
2018-02-18T20:38:46.347Z,8.85
2018-02-18T20:41:15.532Z,13.88
2018-02-18T20:43:43.603Z,9.60
2018-02-18T20:46:11.680Z,9.88
2018-02-18T20:48:39.848Z,10.45
2018-02-18T20:51:08.033Z,7.28
2018-02-18T20:53:36.195Z,8.00
2018-02-18T20:56:04.379Z,8.43
2018-02-18T20:58:32.547Z,6.50
2018-02-18T21:01:00.718Z,7.82
2018-02-18T21:03:28.684Z,6.50
2018-02-18T21:05:56.972Z,11.50
2018-02-18T21:08:25.145Z,11.02
2018-02-18T21:10:53.319Z,7.90
2018-02-18T21:13:22.305Z,8.55
2018-02-18T21:15:50.386Z,7.87
2018-02-18T21:18:18.441Z,8.43
2018-02-18T21:20:46.525Z,8.60
2018-02-18T21:23:15.512Z,8.73
2018-02-18T21:25:43.691Z,8.45
2018-02-18T21:28:11.863Z,10.80
2018-02-18T21:30:39.826Z,9.15
2018-02-18T21:33:09.168Z,9.57
2018-02-18T21:35:37.306Z,8.45
2018-02-18T21:38:05.553Z,10.30
2018-02-18T21:40:33.540Z,10.07
2018-02-18T21:43:01.718Z,11.45
2018-02-18T21:45:30.003Z,10.98
2018-02-18T21:47:58.276Z,11.12
2018-02-18T21:50:26.443Z,8.95
2018-02-18T21:52:54.406Z,9.60
2018-02-18T21:55:22.478Z,10.10
2018-02-18T21:57:50.549Z,11.80
2018-02-18T22:00:18.735Z,13.15
2018-02-18T22:02:46.908Z,10.45
2018-02-18T22:05:15.073Z,10.27
2018-02-18T22:07:43.251Z,13.10
2018-02-18T22:10:11.418Z,11.68
2018-02-18T22:12:39.494Z,12.32
2018-02-18T22:15:08.178Z,10.38
2018-02-18T22:17:36.246Z,13.20
2018-02-18T22:20:04.423Z,14.55
2018-02-18T22:22:32.502Z,12.55
2018-02-18T22:25:00.560Z,10.88
2018-02-18T22:27:28.636Z,11.73
2018-02-18T22:29:57.420Z,12.13
2018-02-18T22:32:25.502Z,14.10
2018-02-18T22:34:53.566Z,14.50
2018-02-18T22:37:21.632Z,14.10
2018-02-18T22:39:49.818Z,13.25
2018-02-18T22:42:18.812Z,14.82
2018-02-18T22:44:46.974Z,11.65
2018-02-18T22:47:15.144Z,14.00
2018-02-18T22:49:43.233Z,13.52
2018-02-18T22:52:11.288Z,13.57
2018-02-18T22:54:39.492Z,13.57
2018-02-18T22:57:08.821Z,16.30
2018-02-18T22:59:36.832Z,12.27
2018-02-18T23:02:05.005Z,13.18
2018-02-18T23:04:33.192Z,14.45
2018-02-18T23:07:06.703Z,16.02
2018-02-18T23:09:35.568Z,14.63
2018-02-18T23:12:04.266Z,15.93
2018-02-18T23:14:32.431Z,19.02
2018-02-18T23:17:00.510Z,17.67
2018-02-18T23:19:28.676Z,19.58
2018-02-18T23:21:56.747Z,19.10
2018-02-18T23:24:24.916Z,15.90
2018-02-18T23:26:53.096Z,18.12
2018-02-18T23:29:23.928Z,14.95
2018-02-18T23:31:52.010Z,22.10
2018-02-18T23:34:22.946Z,13.25
2018-02-18T23:36:53.669Z,16.50
2018-02-18T23:39:21.847Z,15.85
2018-02-18T23:41:50.015Z,13.55
2018-02-18T23:44:18.086Z,16.77
2018-02-18T23:46:46.273Z,18.27
2018-02-18T23:49:14.331Z,17.12
2018-02-18T23:51:42.516Z,18.05
2018-02-18T23:54:11.305Z,14.75
2018-02-18T23:56:39.363Z,20.55
2018-02-18T23:59:07.435Z,17.37
